메인 페이지
METAR-TAF:

METAR-TAF

공항 :

Griffiss_Air_Force_Base

Rome, 뉴욕, 미국

위도: 43-14N, 경도: 075-24W, 고도: 154m

현재 날씨관측

예보는 13분 전, 14:38시(UTC)에 발표되었습니다.
서남서9kt
온도 17°C
습도 68%
기압 1015 hPa
시정: 16.1km
고도 2900ft 상공 구름 많음

METAR: KRME 301438Z 25009KT 10SM BKN029 17/11 A2996 RMK AO2 T01720106

시각: 10:51 (14:51 UTC)

예보

예보는 1 시간 43분 전, 13:08시(UTC)에 발표되었습니다.
예보 대상 시간: 30일 13시부터 31일 12시까지 (UTC)
12kt
시정: 10km
고도 2800ft 상공 흐림
30일 1500시부터 (UTC)
10kt
시정: 10km
고도 3500ft 상공 구름 많음
일시적
30일 20시부터 30일 23시까지 (UTC)
시정: 6.4km
고도 2500ft 상공 흐림
약한소나기
31일 0100시부터 (UTC)
8kt
시정: 10km
고도 2500ft 상공 구름 많음
31일 0700시부터 (UTC)
서북서6kt
시정: 10km
고도 3500ft 상공 구름 많음

TAF: KRME 301308Z 3013/3112 28012KT P6SM OVC028 FM301500 27010KT P6SM BKN035 TEMPO 3020/3023 4SM -SHRA OVC025 FM310100 28008KT P6SM BKN025 FM310700 30006KT P6SM BKN035

4,000개 이상의 공항 관측 자료 및 예보 (METAR 및 TAF 보고).

지도상에서 검색 가능한 기상관측소가 노란 점과 빨간 점으로 표시되어 있습니다.

기상관측소 명을 보려면 표시 위로 마우스를 이동하세요.

날씨 관측과 예보를 보려면 클릭하세요.

지도 변경 : 확대하려면 엑스 표시가 있는 녹색 버튼, 축소하려면 빼기 표시가 있는 녹색 버튼, 다음 페이지의 지도를 보려면 녹색 화살표를 클릭하세요.


METAR-TAF: